sensor_id;sensor_type;location;lat;lon;timestamp;pressure;altitude;pressure_sealevel;temperature;humidity
49461;BME280;35355;49.198;-0.368;2022-12-18T00:01:57;101616.16;;;-3.01;81.39
49461;BME280;35355;49.198;-0.368;2022-12-18T00:04:24;101617.59;;;-3.06;81.54
49461;BME280;35355;49.198;-0.368;2022-12-18T00:06:50;101615.22;;;-3.09;81.41
49461;BME280;35355;49.198;-0.368;2022-12-18T00:09:16;101610.03;;;-3.11;81.40
49461;BME280;35355;49.198;-0.368;2022-12-18T00:11:42;101603.28;;;-3.15;81.30
49461;BME280;35355;49.198;-0.368;2022-12-18T00:14:09;101612.84;;;-3.12;81.35
49461;BME280;35355;49.198;-0.368;2022-12-18T00:16:35;101608.34;;;-3.12;81.53
49461;BME280;35355;49.198;-0.368;2022-12-18T00:19:03;101605.38;;;-3.09;81.34
49461;BME280;35355;49.198;-0.368;2022-12-18T00:21:30;101603.69;;;-3.10;81.52
49461;BME280;35355;49.198;-0.368;2022-12-18T00:23:57;101612.09;;;-3.05;81.78
49461;BME280;35355;49.198;-0.368;2022-12-18T00:26:25;101609.97;;;-3.01;81.44
49461;BME280;35355;49.198;-0.368;2022-12-18T00:28:51;101606.00;;;-2.97;81.65
49461;BME280;35355;49.198;-0.368;2022-12-18T00:31:20;101603.56;;;-2.90;81.51
49461;BME280;35355;49.198;-0.368;2022-12-18T00:33:46;101596.06;;;-2.87;81.34
49461;BME280;35355;49.198;-0.368;2022-12-18T00:36:14;101595.34;;;-2.79;81.62
49461;BME280;35355;49.198;-0.368;2022-12-18T00:38:39;101589.84;;;-2.77;81.36
49461;BME280;35355;49.198;-0.368;2022-12-18T00:41:06;101582.34;;;-2.74;81.78
49461;BME280;35355;49.198;-0.368;2022-12-18T00:43:32;101586.25;;;-2.68;81.29
49461;BME280;35355;49.198;-0.368;2022-12-18T00:45:57;101581.25;;;-2.63;81.48
49461;BME280;35355;49.198;-0.368;2022-12-18T00:48:22;101576.47;;;-2.59;81.29
49461;BME280;35355;49.198;-0.368;2022-12-18T00:50:49;101588.38;;;-2.54;81.35
49461;BME280;35355;49.198;-0.368;2022-12-18T00:53:14;101585.38;;;-2.51;81.25
49461;BME280;35355;49.198;-0.368;2022-12-18T00:55:40;101585.06;;;-2.48;81.31
49461;BME280;35355;49.198;-0.368;2022-12-18T00:58:07;101572.69;;;-2.49;81.09
49461;BME280;35355;49.198;-0.368;2022-12-18T01:00:32;101571.56;;;-2.46;81.11
49461;BME280;35355;49.198;-0.368;2022-12-18T01:02:57;101559.88;;;-2.45;81.32
49461;BME280;35355;49.198;-0.368;2022-12-18T01:05:23;101554.38;;;-2.43;81.14
49461;BME280;35355;49.198;-0.368;2022-12-18T01:07:48;101546.19;;;-2.42;80.96
49461;BME280;35355;49.198;-0.368;2022-12-18T01:10:14;101532.97;;;-2.43;80.85
49461;BME280;35355;49.198;-0.368;2022-12-18T01:12:39;101540.84;;;-2.42;80.84
49461;BME280;35355;49.198;-0.368;2022-12-18T01:15:06;101531.13;;;-2.43;80.78
49461;BME280;35355;49.198;-0.368;2022-12-18T01:17:32;101531.28;;;-2.44;80.75
49461;BME280;35355;49.198;-0.368;2022-12-18T01:19:58;101533.13;;;-2.45;81.05
49461;BME280;35355;49.198;-0.368;2022-12-18T01:22:23;101533.41;;;-2.48;80.80
49461;BME280;35355;49.198;-0.368;2022-12-18T01:24:49;101531.06;;;-2.51;80.95
49461;BME280;35355;49.198;-0.368;2022-12-18T01:27:14;101542.06;;;-2.54;80.81
49461;BME280;35355;49.198;-0.368;2022-12-18T01:29:39;101546.44;;;-2.53;80.97
49461;BME280;35355;49.198;-0.368;2022-12-18T01:32:05;101535.06;;;-2.55;81.03
49461;BME280;35355;49.198;-0.368;2022-12-18T01:34:30;101538.88;;;-2.58;80.32
49461;BME280;35355;49.198;-0.368;2022-12-18T01:36:55;101539.03;;;-2.59;80.61
49461;BME280;35355;49.198;-0.368;2022-12-18T01:39:21;101536.69;;;-2.62;80.65
49461;BME280;35355;49.198;-0.368;2022-12-18T01:41:46;101540.66;;;-2.67;81.04
49461;BME280;35355;49.198;-0.368;2022-12-18T01:47:15;101557.00;;;-2.70;80.59
49461;BME280;35355;49.198;-0.368;2022-12-18T01:49:43;101550.78;;;-2.70;80.72
49461;BME280;35355;49.198;-0.368;2022-12-18T01:52:09;101548.97;;;-2.70;80.93
49461;BME280;35355;49.198;-0.368;2022-12-18T01:54:34;101543.47;;;-2.68;80.90
49461;BME280;35355;49.198;-0.368;2022-12-18T01:56:59;101551.81;;;-2.71;80.63
49461;BME280;35355;49.198;-0.368;2022-12-18T01:59:27;101556.84;;;-2.68;81.01
49461;BME280;35355;49.198;-0.368;2022-12-18T02:01:53;101541.63;;;-2.68;80.90
49461;BME280;35355;49.198;-0.368;2022-12-18T02:04:27;101535.81;;;-2.63;80.82
49461;BME280;35355;49.198;-0.368;2022-12-18T02:09:52;101550.41;;;-2.57;81.25
49461;BME280;35355;49.198;-0.368;2022-12-18T02:12:24;101538.41;;;-2.53;80.79
49461;BME280;35355;49.198;-0.368;2022-12-18T02:15:02;101538.66;;;-2.47;81.13
49461;BME280;35355;49.198;-0.368;2022-12-18T02:17:37;101536.47;;;-2.43;81.17
49461;BME280;35355;49.198;-0.368;2022-12-18T02:20:13;101537.84;;;-2.39;81.19
49461;BME280;35355;49.198;-0.368;2022-12-18T02:28:11;101522.47;;;-2.37;80.58
49461;BME280;35355;49.198;-0.368;2022-12-18T02:30:39;101512.94;;;-2.39;80.29
49461;BME280;35355;49.198;-0.368;2022-12-18T02:33:07;101509.44;;;-2.40;80.59
49461;BME280;35355;49.198;-0.368;2022-12-18T02:35:35;101509.59;;;-2.41;80.44
49461;BME280;35355;49.198;-0.368;2022-12-18T02:38:03;101517.94;;;-2.44;80.17
49461;BME280;35355;49.198;-0.368;2022-12-18T02:40:29;101514.72;;;-2.48;80.55
49461;BME280;35355;49.198;-0.368;2022-12-18T02:42:55;101498.16;;;-2.52;80.32
49461;BME280;35355;49.198;-0.368;2022-12-18T02:45:20;101497.34;;;-2.52;80.51
49461;BME280;35355;49.198;-0.368;2022-12-18T02:47:48;101499.31;;;-2.54;80.32
49461;BME280;35355;49.198;-0.368;2022-12-18T02:50:36;101499.31;;;-2.54;80.57
49461;BME280;35355;49.198;-0.368;2022-12-18T02:56:26;101490.06;;;-2.60;80.58
49461;BME280;35355;49.198;-0.368;2022-12-18T03:01:25;101492.06;;;-2.62;80.68
49461;BME280;35355;49.198;-0.368;2022-12-18T03:04:02;101491.25;;;-2.62;80.33
49461;BME280;35355;49.198;-0.368;2022-12-18T03:06:36;101481.53;;;-2.63;80.63
49461;BME280;35355;49.198;-0.368;2022-12-18T03:09:12;101469.16;;;-2.65;80.38
49461;BME280;35355;49.198;-0.368;2022-12-18T03:11:41;101466.50;;;-2.65;80.32
49461;BME280;35355;49.198;-0.368;2022-12-18T03:14:30;101458.47;;;-2.65;80.54
49461;BME280;35355;49.198;-0.368;2022-12-18T03:17:01;101468.19;;;-2.63;80.81
49461;BME280;35355;49.198;-0.368;2022-12-18T03:19:29;101470.19;;;-2.66;80.33
49461;BME280;35355;49.198;-0.368;2022-12-18T03:21:57;101466.50;;;-2.65;80.18
49461;BME280;35355;49.198;-0.368;2022-12-18T03:24:28;101464.84;;;-2.66;80.16
49461;BME280;35355;49.198;-0.368;2022-12-18T03:26:58;101461.16;;;-2.65;80.25
49461;BME280;35355;49.198;-0.368;2022-12-18T03:29:33;101453.13;;;-2.65;80.24
49461;BME280;35355;49.198;-0.368;2022-12-18T03:32:12;101447.13;;;-2.67;80.64
49461;BME280;35355;49.198;-0.368;2022-12-18T03:34:41;101440.09;;;-2.68;80.54
49461;BME280;35355;49.198;-0.368;2022-12-18T03:37:08;101447.94;;;-2.66;80.30
49461;BME280;35355;49.198;-0.368;2022-12-18T03:39:34;101449.78;;;-2.67;80.19
49461;BME280;35355;49.198;-0.368;2022-12-18T03:44:45;101440.63;;;-2.64;80.44
49461;BME280;35355;49.198;-0.368;2022-12-18T03:52:51;101432.28;;;-2.61;80.50
49461;BME280;35355;49.198;-0.368;2022-12-18T03:55:18;101442.97;;;-2.61;80.12
49461;BME280;35355;49.198;-0.368;2022-12-18T03:57:45;101428.75;;;-2.61;80.45
49461;BME280;35355;49.198;-0.368;2022-12-18T04:00:15;101455.88;;;-2.56;80.23
49461;BME280;35355;49.198;-0.368;2022-12-18T04:02:50;101455.88;;;-2.56;80.31
49461;BME280;35355;49.198;-0.368;2022-12-18T04:05:17;101465.56;;;-2.55;80.26
49461;BME280;35355;49.198;-0.368;2022-12-18T04:07:45;101462.91;;;-2.55;80.34
49461;BME280;35355;49.198;-0.368;2022-12-18T04:10:12;101470.91;;;-2.55;80.28
49461;BME280;35355;49.198;-0.368;2022-12-18T04:12:38;101462.91;;;-2.55;80.25
49461;BME280;35355;49.198;-0.368;2022-12-18T04:15:05;101465.25;;;-2.52;80.15
49461;BME280;35355;49.198;-0.368;2022-12-18T04:17:30;101460.41;;;-2.49;80.24
49461;BME280;35355;49.198;-0.368;2022-12-18T04:19:55;101451.25;;;-2.46;79.95
49461;BME280;35355;49.198;-0.368;2022-12-18T04:22:21;101444.91;;;-2.45;80.20
49461;BME280;35355;49.198;-0.368;2022-12-18T04:24:46;101458.28;;;-2.45;80.02
49461;BME280;35355;49.198;-0.368;2022-12-18T04:27:12;101471.34;;;-2.42;80.16
49461;BME280;35355;49.198;-0.368;2022-12-18T04:29:37;101472.00;;;-2.40;80.11
49461;BME280;35355;49.198;-0.368;2022-12-18T04:32:03;101458.63;;;-2.40;79.97
49461;BME280;35355;49.198;-0.368;2022-12-18T04:34:28;101461.16;;;-2.38;79.70
49461;BME280;35355;49.198;-0.368;2022-12-18T04:36:53;101468.19;;;-2.37;79.91
49461;BME280;35355;49.198;-0.368;2022-12-18T04:39:19;101471.69;;;-2.37;79.88
49461;BME280;35355;49.198;-0.368;2022-12-18T04:41:44;101478.56;;;-2.34;79.91
49461;BME280;35355;49.198;-0.368;2022-12-18T04:44:10;101471.38;;;-2.34;79.97
49461;BME280;35355;49.198;-0.368;2022-12-18T04:46:35;101477.41;;;-2.32;80.16
49461;BME280;35355;49.198;-0.368;2022-12-18T04:49:01;101472.06;;;-2.32;80.07
49461;BME280;35355;49.198;-0.368;2022-12-18T04:51:26;101472.88;;;-2.31;79.72
49461;BME280;35355;49.198;-0.368;2022-12-18T04:53:52;101475.41;;;-2.30;80.01
49461;BME280;35355;49.198;-0.368;2022-12-18T04:56:18;101471.75;;;-2.28;79.84
49461;BME280;35355;49.198;-0.368;2022-12-18T04:58:44;101467.06;;;-2.26;79.90
49461;BME280;35355;49.198;-0.368;2022-12-18T05:01:10;101464.53;;;-2.28;79.72
49461;BME280;35355;49.198;-0.368;2022-12-18T05:03:37;101463.22;;;-2.24;80.00
49461;BME280;35355;49.198;-0.368;2022-12-18T05:06:03;101452.38;;;-2.22;79.93
49461;BME280;35355;49.198;-0.368;2022-12-18T05:08:30;101445.19;;;-2.22;79.83
49461;BME280;35355;49.198;-0.368;2022-12-18T05:11:03;101442.34;;;-2.20;79.80
49461;BME280;35355;49.198;-0.368;2022-12-18T05:13:29;101432.34;;;-2.18;79.92
49461;BME280;35355;49.198;-0.368;2022-12-18T05:15:55;101423.31;;;-2.17;79.69
49461;BME280;35355;49.198;-0.368;2022-12-18T05:18:22;101422.97;;;-2.14;79.57
49461;BME280;35355;49.198;-0.368;2022-12-18T05:39:35;101410.13;;;-2.79;80.25
49461;BME280;35355;49.198;-0.368;2022-12-18T05:42:00;101395.63;;;-2.77;80.44
49461;BME280;35355;49.198;-0.368;2022-12-18T05:44:26;101399.34;;;-2.70;80.53
49461;BME280;35355;49.198;-0.368;2022-12-18T05:46:51;101386.84;;;-2.61;80.08
49461;BME280;35355;49.198;-0.368;2022-12-18T05:49:16;101381.38;;;-2.51;80.24
49461;BME280;35355;49.198;-0.368;2022-12-18T05:51:42;101366.22;;;-2.42;80.36
49461;BME280;35355;49.198;-0.368;2022-12-18T05:54:07;101357.25;;;-2.33;80.14
49461;BME280;35355;49.198;-0.368;2022-12-18T05:56:32;101356.59;;;-2.27;80.25
49461;BME280;35355;49.198;-0.368;2022-12-18T05:58:58;101355.13;;;-2.21;80.06
49461;BME280;35355;49.198;-0.368;2022-12-18T06:01:25;101351.78;;;-2.15;80.57
49461;BME280;35355;49.198;-0.368;2022-12-18T06:03:51;101345.13;;;-2.11;79.97
49461;BME280;35355;49.198;-0.368;2022-12-18T06:06:24;101337.44;;;-2.06;79.97
49461;BME280;35355;49.198;-0.368;2022-12-18T06:08:50;101335.41;;;-2.04;79.93
49461;BME280;35355;49.198;-0.368;2022-12-18T06:11:26;101340.47;;;-2.01;79.62
49461;BME280;35355;49.198;-0.368;2022-12-18T06:13:53;101342.97;;;-1.99;80.14
49461;BME280;35355;49.198;-0.368;2022-12-18T06:16:19;101348.97;;;-1.97;79.75
49461;BME280;35355;49.198;-0.368;2022-12-18T06:18:44;101343.47;;;-1.96;79.83
49461;BME280;35355;49.198;-0.368;2022-12-18T06:21:10;101352.16;;;-1.94;79.78
49461;BME280;35355;49.198;-0.368;2022-12-18T06:23:35;101344.81;;;-1.91;79.60
49461;BME280;35355;49.198;-0.368;2022-12-18T06:26:09;101335.81;;;-1.90;79.88
49461;BME280;35355;49.198;-0.368;2022-12-18T06:28:35;101336.63;;;-1.90;79.61
49461;BME280;35355;49.198;-0.368;2022-12-18T06:31:00;101335.81;;;-1.90;79.59
49461;BME280;35355;49.198;-0.368;2022-12-18T06:33:28;101332.47;;;-1.84;79.77
49461;BME280;35355;49.198;-0.368;2022-12-18T06:35:54;101326.09;;;-1.83;79.62
49461;BME280;35355;49.198;-0.368;2022-12-18T06:38:24;101324.09;;;-1.81;79.59
49461;BME280;35355;49.198;-0.368;2022-12-18T06:40:49;101314.22;;;-1.81;79.67
49461;BME280;35355;49.198;-0.368;2022-12-18T06:43:15;101321.75;;;-1.76;79.79
49461;BME280;35355;49.198;-0.368;2022-12-18T06:45:40;101313.56;;;-1.74;79.55
49461;BME280;35355;49.198;-0.368;2022-12-18T06:48:05;101314.41;;;-1.74;80.01
49461;BME280;35355;49.198;-0.368;2022-12-18T06:50:31;101310.69;;;-1.73;79.78
49461;BME280;35355;49.198;-0.368;2022-12-18T06:52:56;101319.75;;;-1.74;79.53
49461;BME280;35355;49.198;-0.368;2022-12-18T06:55:21;101317.75;;;-1.72;79.47
49461;BME280;35355;49.198;-0.368;2022-12-18T06:57:47;101320.09;;;-1.69;79.57
49461;BME280;35355;49.198;-0.368;2022-12-18T07:00:12;101331.47;;;-1.67;79.64
49461;BME280;35355;49.198;-0.368;2022-12-18T07:02:38;101320.78;;;-1.67;79.48
49461;BME280;35355;49.198;-0.368;2022-12-18T07:05:04;101317.06;;;-1.66;79.74
49461;BME280;35355;49.198;-0.368;2022-12-18T07:07:30;101313.72;;;-1.60;79.75
49461;BME280;35355;49.198;-0.368;2022-12-18T07:09:55;101310.72;;;-1.56;79.44
49461;BME280;35355;49.198;-0.368;2022-12-18T07:12:20;101317.75;;;-1.55;79.49
49461;BME280;35355;49.198;-0.368;2022-12-18T07:14:46;101328.09;;;-1.52;79.36
49461;BME280;35355;49.198;-0.368;2022-12-18T07:17:11;101322.41;;;-1.49;79.71
49461;BME280;35355;49.198;-0.368;2022-12-18T07:19:36;101315.91;;;-1.47;79.82
49461;BME280;35355;49.198;-0.368;2022-12-18T07:22:02;101308.38;;;-1.43;79.35
49461;BME280;35355;49.198;-0.368;2022-12-18T07:24:27;101306.34;;;-1.41;79.64
49461;BME280;35355;49.198;-0.368;2022-12-18T07:26:53;101307.69;;;-1.37;79.27
49461;BME280;35355;49.198;-0.368;2022-12-18T07:29:18;101303.00;;;-1.35;79.71
49461;BME280;35355;49.198;-0.368;2022-12-18T07:31:44;101296.47;;;-1.32;79.52
49461;BME280;35355;49.198;-0.368;2022-12-18T07:34:11;101296.13;;;-1.29;79.43
49461;BME280;35355;49.198;-0.368;2022-12-18T07:36:36;101312.84;;;-1.27;79.60
49461;BME280;35355;49.198;-0.368;2022-12-18T07:39:02;101301.16;;;-1.26;79.52
49461;BME280;35355;49.198;-0.368;2022-12-18T07:41:27;101291.94;;;-1.24;79.61
49461;BME280;35355;49.198;-0.368;2022-12-18T07:43:53;101277.56;;;-1.22;79.17
49461;BME280;35355;49.198;-0.368;2022-12-18T07:46:18;101291.59;;;-1.20;79.39
49461;BME280;35355;49.198;-0.368;2022-12-18T07:48:44;101298.47;;;-1.18;79.33
49461;BME280;35355;49.198;-0.368;2022-12-18T07:51:11;101290.25;;;-1.16;79.49
49461;BME280;35355;49.198;-0.368;2022-12-18T07:53:38;101292.94;;;-1.16;79.42
49461;BME280;35355;49.198;-0.368;2022-12-18T07:56:07;101306.00;;;-1.13;79.48
49461;BME280;35355;49.198;-0.368;2022-12-18T07:58:33;101306.47;;;-1.10;79.30
49461;BME280;35355;49.198;-0.368;2022-12-18T08:01:09;101307.81;;;-1.06;79.48
49461;BME280;35355;49.198;-0.368;2022-12-18T08:03:36;101306.63;;;-1.03;79.22
49461;BME280;35355;49.198;-0.368;2022-12-18T08:06:03;101301.28;;;-1.03;79.40
49461;BME280;35355;49.198;-0.368;2022-12-18T08:08:29;101289.38;;;-1.00;79.39
49461;BME280;35355;49.198;-0.368;2022-12-18T08:10:55;101294.22;;;-0.96;79.42
49461;BME280;35355;49.198;-0.368;2022-12-18T08:13:21;101296.56;;;-0.93;79.55
49461;BME280;35355;49.198;-0.368;2022-12-18T08:15:46;101291.03;;;-0.91;79.51
49461;BME280;35355;49.198;-0.368;2022-12-18T08:18:12;101280.13;;;-0.90;79.27
49461;BME280;35355;49.198;-0.368;2022-12-18T08:20:37;101279.78;;;-0.86;79.45
49461;BME280;35355;49.198;-0.368;2022-12-18T08:23:02;101281.47;;;-0.85;79.45
49461;BME280;35355;49.198;-0.368;2022-12-18T08:25:28;101282.13;;;-0.83;79.24
49461;BME280;35355;49.198;-0.368;2022-12-18T08:27:53;101284.81;;;-0.83;79.31
49461;BME280;35355;49.198;-0.368;2022-12-18T08:30:18;101280.59;;;-0.78;79.76
49461;BME280;35355;49.198;-0.368;2022-12-18T08:32:44;101278.75;;;-0.77;79.56
49461;BME280;35355;49.198;-0.368;2022-12-18T08:35:09;101280.06;;;-0.73;79.48
49461;BME280;35355;49.198;-0.368;2022-12-18T08:37:36;101269.00;;;-0.70;79.71
49461;BME280;35355;49.198;-0.368;2022-12-18T08:40:02;101267.81;;;-0.67;79.59
49461;BME280;35355;49.198;-0.368;2022-12-18T08:42:27;101273.66;;;-0.64;79.86
49461;BME280;35355;49.198;-0.368;2022-12-18T08:45:11;101279.53;;;-0.60;79.65
49461;BME280;35355;49.198;-0.368;2022-12-18T08:47:36;101276.50;;;-0.57;79.41
49461;BME280;35355;49.198;-0.368;2022-12-18T08:50:02;101276.59;;;-0.50;79.54
49461;BME280;35355;49.198;-0.368;2022-12-18T08:52:27;101280.44;;;-0.45;79.91
49461;BME280;35355;49.198;-0.368;2022-12-18T08:54:53;101278.91;;;-0.39;79.29
49461;BME280;35355;49.198;-0.368;2022-12-18T08:57:18;101286.25;;;-0.33;79.42
49461;BME280;35355;49.198;-0.368;2022-12-18T08:59:44;101279.34;;;-0.27;79.52
49461;BME280;35355;49.198;-0.368;2022-12-18T09:02:10;101279.81;;;-0.24;79.34
49461;BME280;35355;49.198;-0.368;2022-12-18T09:04:36;101277.91;;;-0.15;80.08
49461;BME280;35355;49.198;-0.368;2022-12-18T09:07:01;101273.88;;;-0.11;79.23
49461;BME280;35355;49.198;-0.368;2022-12-18T09:09:27;101277.41;;;-0.10;79.93
49461;BME280;35355;49.198;-0.368;2022-12-18T09:11:52;101286.38;;;-0.03;79.46
49461;BME280;35355;49.198;-0.368;2022-12-18T09:14:17;101285.69;;;0.03;80.25
49461;BME280;35355;49.198;-0.368;2022-12-18T09:16:43;101277.28;;;0.06;79.64
49461;BME280;35355;49.198;-0.368;2022-12-18T09:19:09;101287.31;;;0.12;79.99
49461;BME280;35355;49.198;-0.368;2022-12-18T09:21:35;101296.69;;;0.16;79.60
49461;BME280;35355;49.198;-0.368;2022-12-18T09:24:00;101293.44;;;0.21;79.43
49461;BME280;35355;49.198;-0.368;2022-12-18T09:26:26;101293.72;;;0.26;80.29
49461;BME280;35355;49.198;-0.368;2022-12-18T09:28:52;101304.78;;;0.31;79.42
49461;BME280;35355;49.198;-0.368;2022-12-18T09:31:20;101295.34;;;0.36;80.06
49461;BME280;35355;49.198;-0.368;2022-12-18T09:33:46;101294.13;;;0.38;80.33
49461;BME280;35355;49.198;-0.368;2022-12-18T09:36:13;101294.44;;;0.43;80.12
49461;BME280;35355;49.198;-0.368;2022-12-18T09:38:39;101301.78;;;0.49;80.01
49461;BME280;35355;49.198;-0.368;2022-12-18T09:44:18;101289.75;;;0.60;79.89
49461;BME280;35355;49.198;-0.368;2022-12-18T09:47:01;101284.69;;;0.65;79.93
49461;BME280;35355;49.198;-0.368;2022-12-18T09:49:30;101279.75;;;0.69;79.98
49461;BME280;35355;49.198;-0.368;2022-12-18T09:52:02;101273.00;;;0.73;80.01
49461;BME280;35355;49.198;-0.368;2022-12-18T09:54:36;101281.34;;;0.78;79.99
49461;BME280;35355;49.198;-0.368;2022-12-18T09:57:03;101271.91;;;0.82;80.83
49461;BME280;35355;49.198;-0.368;2022-12-18T09:59:38;101260.97;;;0.84;80.61
49461;BME280;35355;49.198;-0.368;2022-12-18T10:02:15;101268.13;;;0.92;80.08
49461;BME280;35355;49.198;-0.368;2022-12-18T10:04:42;101267.38;;;0.98;80.76
49461;BME280;35355;49.198;-0.368;2022-12-18T10:07:17;101266.81;;;1.02;80.36
49461;BME280;35355;49.198;-0.368;2022-12-18T10:12:43;101261.59;;;1.31;80.94
49461;BME280;35355;49.198;-0.368;2022-12-18T10:15:21;101260.19;;;1.50;81.71
49461;BME280;35355;49.198;-0.368;2022-12-18T10:18:54;101252.06;;;1.65;81.37
49461;BME280;35355;49.198;-0.368;2022-12-18T10:20:57;101254.09;;;1.78;80.96
49461;BME280;35355;49.198;-0.368;2022-12-18T10:28:31;101240.94;;;2.11;81.47
49461;BME280;35355;49.198;-0.368;2022-12-18T10:30:57;101241.44;;;2.21;81.75
49461;BME280;35355;49.198;-0.368;2022-12-18T10:33:30;101240.91;;;2.33;81.99
49461;BME280;35355;49.198;-0.368;2022-12-18T10:35:57;101242.44;;;2.42;81.96
49461;BME280;35355;49.198;-0.368;2022-12-18T10:38:31;101246.28;;;2.54;81.83
49461;BME280;35355;49.198;-0.368;2022-12-18T10:41:05;101243.03;;;2.66;82.29
49461;BME280;35355;49.198;-0.368;2022-12-18T10:43:33;101227.34;;;2.76;82.22
49461;BME280;35355;49.198;-0.368;2022-12-18T10:46:12;101225.56;;;2.90;82.23
49461;BME280;35355;49.198;-0.368;2022-12-18T10:54:05;101211.19;;;3.24;82.56
49461;BME280;35355;49.198;-0.368;2022-12-18T10:56:34;101217.03;;;3.28;82.16
49461;BME280;35355;49.198;-0.368;2022-12-18T10:59:05;101206.88;;;3.30;82.38
49461;BME280;35355;49.198;-0.368;2022-12-18T11:04:37;101202.69;;;3.27;82.38
49461;BME280;35355;49.198;-0.368;2022-12-18T11:07:14;101192.31;;;3.24;82.39
49461;BME280;35355;49.198;-0.368;2022-12-18T11:09:39;101186.91;;;3.24;82.56
49461;BME280;35355;49.198;-0.368;2022-12-18T11:12:17;101177.81;;;3.25;83.03
49461;BME280;35355;49.198;-0.368;2022-12-18T11:14:47;101182.78;;;3.28;83.13
49461;BME280;35355;49.198;-0.368;2022-12-18T11:17:21;101182.19;;;3.33;82.72
49461;BME280;35355;49.198;-0.368;2022-12-18T11:23:01;101176.19;;;3.51;82.86
49461;BME280;35355;49.198;-0.368;2022-12-18T11:25:28;101158.97;;;3.59;83.24
49461;BME280;35355;49.198;-0.368;2022-12-18T11:27:58;101158.19;;;3.65;83.02
49461;BME280;35355;49.198;-0.368;2022-12-18T11:30:28;101154.00;;;3.69;83.00
49461;BME280;35355;49.198;-0.368;2022-12-18T11:33:14;101153.41;;;3.74;82.79
49461;BME280;35355;49.198;-0.368;2022-12-18T11:35:59;101154.22;;;3.81;83.25
49461;BME280;35355;49.198;-0.368;2022-12-18T11:38:33;101150.94;;;3.85;83.17
49461;BME280;35355;49.198;-0.368;2022-12-18T11:41:28;101153.00;;;3.90;82.84
49461;BME280;35355;49.198;-0.368;2022-12-18T11:44:53;101158.00;;;4.07;83.41
49461;BME280;35355;49.198;-0.368;2022-12-18T11:47:31;101165.03;;;4.28;83.69
49461;BME280;35355;49.198;-0.368;2022-12-18T11:50:05;101156.69;;;4.43;83.36
49461;BME280;35355;49.198;-0.368;2022-12-18T11:52:39;101147.78;;;4.49;83.60
49461;BME280;35355;49.198;-0.368;2022-12-18T12:00:46;101134.63;;;4.59;83.14
49461;BME280;35355;49.198;-0.368;2022-12-18T12:06:04;101127.09;;;4.68;83.34
49461;BME280;35355;49.198;-0.368;2022-12-18T12:13:32;101111.91;;;4.73;82.63
49461;BME280;35355;49.198;-0.368;2022-12-18T12:16:18;101110.44;;;4.71;82.21
49461;BME280;35355;49.198;-0.368;2022-12-18T12:19:08;101109.25;;;4.67;82.19
49461;BME280;35355;49.198;-0.368;2022-12-18T12:21:41;101110.72;;;4.56;82.10
49461;BME280;35355;49.198;-0.368;2022-12-18T12:30:07;101080.25;;;4.09;81.45
49461;BME280;35355;49.198;-0.368;2022-12-18T12:38:09;101062.03;;;3.71;81.84
49461;BME280;35355;49.198;-0.368;2022-12-18T12:41:11;101051.00;;;3.59;82.02
49461;BME280;35355;49.198;-0.368;2022-12-18T12:43:57;101052.69;;;3.40;81.72
49461;BME280;35355;49.198;-0.368;2022-12-18T12:46:24;101061.59;;;3.33;82.04
49461;BME280;35355;49.198;-0.368;2022-12-18T12:49:04;101045.59;;;3.25;81.98
49461;BME280;35355;49.198;-0.368;2022-12-18T12:51:36;101047.88;;;3.15;82.22
49461;BME280;35355;49.198;-0.368;2022-12-18T12:54:05;101046.41;;;3.12;82.33
49461;BME280;35355;49.198;-0.368;2022-12-18T12:56:42;101038.31;;;3.06;82.23
49461;BME280;35355;49.198;-0.368;2022-12-18T12:59:31;101036.41;;;2.99;82.04
49461;BME280;35355;49.198;-0.368;2022-12-18T13:02:16;101021.91;;;2.94;82.26
49461;BME280;35355;49.198;-0.368;2022-12-18T13:07:47;101011.69;;;2.76;82.67
49461;BME280;35355;49.198;-0.368;2022-12-18T13:13:09;100988.44;;;2.68;82.78
49461;BME280;35355;49.198;-0.368;2022-12-18T13:16:03;101002.13;;;2.67;82.62
49461;BME280;35355;49.198;-0.368;2022-12-18T13:18:31;100996.53;;;2.61;83.20
49461;BME280;35355;49.198;-0.368;2022-12-18T13:25:52;100987.63;;;2.68;83.43
49461;BME280;35355;49.198;-0.368;2022-12-18T13:31:03;100975.63;;;2.90;83.95
49461;BME280;35355;49.198;-0.368;2022-12-18T13:38:40;100959.28;;;3.19;84.66
49461;BME280;35355;49.198;-0.368;2022-12-18T13:43:50;100961.13;;;3.45;84.55
49461;BME280;35355;49.198;-0.368;2022-12-18T13:48:51;100957.34;;;3.73;85.03
49461;BME280;35355;49.198;-0.368;2022-12-18T13:51:19;100967.31;;;3.85;84.85
49461;BME280;35355;49.198;-0.368;2022-12-18T14:10:30;100934.88;;;3.92;84.60
49461;BME280;35355;49.198;-0.368;2022-12-18T14:12:55;100944.81;;;3.98;84.61
49461;BME280;35355;49.198;-0.368;2022-12-18T14:15:36;100942.28;;;4.10;85.23
49461;BME280;35355;49.198;-0.368;2022-12-18T14:21:17;100934.53;;;4.27;85.07
49461;BME280;35355;49.198;-0.368;2022-12-18T14:23:42;100935.78;;;4.31;85.33
49461;BME280;35355;49.198;-0.368;2022-12-18T14:26:25;100947.63;;;4.30;85.36
49461;BME280;35355;49.198;-0.368;2022-12-18T14:28:54;100941.81;;;4.27;85.67
49461;BME280;35355;49.198;-0.368;2022-12-18T14:31:25;100941.38;;;4.30;85.42
49461;BME280;35355;49.198;-0.368;2022-12-18T14:33:52;100948.19;;;4.39;86.14
49461;BME280;35355;49.198;-0.368;2022-12-18T14:36:26;100941.28;;;4.50;86.25
49461;BME280;35355;49.198;-0.368;2022-12-18T14:38:56;100940.41;;;4.56;86.27
49461;BME280;35355;49.198;-0.368;2022-12-18T14:41:23;100937.88;;;4.61;86.23
49461;BME280;35355;49.198;-0.368;2022-12-18T14:43:51;100932.03;;;4.64;86.10
49461;BME280;35355;49.198;-0.368;2022-12-18T14:48:59;100924.09;;;4.69;86.14
49461;BME280;35355;49.198;-0.368;2022-12-18T14:51:27;100929.13;;;4.66;85.75
49461;BME280;35355;49.198;-0.368;2022-12-18T14:53:59;100924.53;;;4.66;86.24
49461;BME280;35355;49.198;-0.368;2022-12-18T14:56:36;100920.34;;;4.70;85.87
49461;BME280;35355;49.198;-0.368;2022-12-18T14:59:14;100909.53;;;4.70;85.67
49461;BME280;35355;49.198;-0.368;2022-12-18T15:04:28;100911.09;;;4.85;86.57
49461;BME280;35355;49.198;-0.368;2022-12-18T15:07:16;100916.44;;;4.91;86.43
49461;BME280;35355;49.198;-0.368;2022-12-18T15:09:44;100915.19;;;4.94;86.41
49461;BME280;35355;49.198;-0.368;2022-12-18T15:12:24;100921.38;;;5.01;86.18
49461;BME280;35355;49.198;-0.368;2022-12-18T15:14:51;100914.94;;;5.02;86.72